Time;durP1;ratioP1;P1;durP2;ratioP2;P2;SDS_P1;SDS_P2;PMS_P1;PMS_P2;Temp;Humidity;BMP_temperature;BMP_pressure;BME280_temperature;BME280_humidity;BME280_pressure;Samples;Min_cycle;Max_cycle;Signal;HPM_P1;HPM_P2
2022/04/30 00:02:15;;;;;;;14.45;8.45;;;;;;;10.53;85.36;99208.66;5030066;28;20045;-64
2022/04/30 00:04:43;;;;;;;10.90;7.45;;;;;;;10.48;84.34;99201.13;5022194;28;20030;-64
2022/04/30 00:07:09;;;;;;;11.05;7.28;;;;;;;10.56;83.28;99216.41;5027533;28;20025;-64
2022/04/30 00:09:36;;;;;;;11.80;7.18;;;;;;;10.56;83.83;99212.84;5030458;28;20068;-64
2022/04/30 00:12:02;;;;;;;10.35;7.22;;;;;;;10.59;83.76;99215.19;5021612;28;22166;-64
2022/04/30 00:14:29;;;;;;;10.75;7.60;;;;;;;10.60;84.01;99209.56;5038950;28;20021;-64
2022/04/30 00:16:54;;;;;;;12.05;6.85;;;;;;;10.50;84.26;99184.69;5026119;28;20048;-64
2022/04/30 00:19:21;;;;;;;10.75;6.93;;;;;;;10.67;85.24;99213.16;5022364;28;20053;-63
2022/04/30 00:21:47;;;;;;;12.23;7.55;;;;;;;10.67;85.97;99212.34;5019659;28;20484;-64
2022/04/30 00:24:12;;;;;;;11.70;7.05;;;;;;;10.61;86.57;99216.66;5030932;28;20484;-64
2022/04/30 00:26:38;;;;;;;10.48;7.20;;;;;;;10.49;87.26;99215.50;5024311;28;20048;-64
2022/04/30 00:29:03;;;;;;;11.70;7.35;;;;;;;10.45;87.85;99209.63;5024261;28;20025;-64
2022/04/30 00:31:28;;;;;;;12.82;7.85;;;;;;;10.42;88.28;99217.28;5020143;28;20056;-63
2022/04/30 00:33:55;;;;;;;12.45;8.02;;;;;;;10.50;86.96;99204.44;5013884;28;20051;-64
2022/04/30 00:36:21;;;;;;;9.63;7.50;;;;;;;10.40;87.27;99197.69;5028222;28;20468;-64
2022/04/30 00:38:47;;;;;;;9.60;7.20;;;;;;;10.56;87.64;99215.53;5023972;28;20408;-64
2022/04/30 00:41:12;;;;;;;10.90;6.65;;;;;;;10.61;87.38;99203.13;5022971;28;20037;-64
2022/04/30 00:43:47;;;;;;;8.57;6.50;;;;;;;10.70;87.60;99207.38;5021826;28;20013;-64
2022/04/30 00:46:14;;;;;;;13.43;7.13;;;;;;;10.55;88.44;99213.88;5022062;28;20047;-64
2022/04/30 00:48:39;;;;;;;9.63;6.75;;;;;;;10.66;88.13;99205.22;5029367;28;20033;-64
2022/04/30 00:51:09;;;;;;;13.73;7.72;;;;;;;10.74;87.04;99213.22;5015855;28;20170;-64
2022/04/30 00:53:37;;;;;;;10.13;7.22;;;;;;;10.52;86.18;99185.34;5030928;28;20028;-63
2022/04/30 00:56:05;;;;;;;11.75;7.40;;;;;;;10.75;86.04;99213.03;5029214;28;20034;-64
2022/04/30 00:58:34;;;;;;;9.38;6.70;;;;;;;10.66;85.84;99214.22;5022526;28;20598;-64
2022/04/30 01:01:01;;;;;;;13.80;7.83;;;;;;;10.67;85.46;99210.47;5024657;28;20429;-64
2022/04/30 01:03:26;;;;;;;9.32;6.72;;;;;;;10.82;84.23;99215.81;5032232;28;20025;-64
2022/04/30 01:05:52;;;;;;;11.05;7.53;;;;;;;10.79;84.03;99209.94;5030811;28;20079;-64
2022/04/30 01:08:19;;;;;;;10.80;7.13;;;;;;;10.75;83.97;99218.44;5016445;28;20108;-64
2022/04/30 01:10:45;;;;;;;11.88;6.80;;;;;;;10.78;82.24;99208.28;5019943;28;20030;-63
2022/04/30 01:13:13;;;;;;;10.38;7.07;;;;;;;10.79;83.42;99209.94;5022884;28;20033;-63
2022/04/30 01:15:39;;;;;;;12.35;7.28;;;;;;;10.69;84.28;99191.34;5023944;28;20017;-64
2022/04/30 01:18:07;;;;;;;10.50;7.32;;;;;;;10.61;84.56;99192.31;5033232;28;20101;-63
2022/04/30 01:20:34;;;;;;;12.68;7.22;;;;;;;10.79;83.97;99209.94;5023891;28;20111;-63
2022/04/30 01:23:04;;;;;;;8.63;6.93;;;;;;;10.74;84.41;99219.50;5030701;28;20065;-63
2022/04/30 01:25:33;;;;;;;12.90;6.53;;;;;;;10.79;83.35;99209.94;5029120;28;20052;-64
2022/04/30 01:28:00;;;;;;;16.20;7.00;;;;;;;10.71;83.83;99203.63;5029703;28;20094;-63
2022/04/30 01:30:25;;;;;;;14.75;6.40;;;;;;;10.68;84.50;99197.75;5031237;28;20118;-64
2022/04/30 01:38:40;;;;;;;13.85;7.10;;;;;;;10.94;82.53;99191.75;4999931;28;20040;-63
2022/04/30 01:41:05;;;;;;;11.32;7.38;;;;;;;10.69;83.12;99172.41;5006868;28;20447;-64
2022/04/30 01:43:33;;;;;;;11.75;7.40;;;;;;;10.68;84.34;99190.47;5014358;28;20033;-63
2022/04/30 01:45:59;;;;;;;12.05;7.82;;;;;;;10.55;85.75;99176.00;5030403;28;20030;-63
2022/04/30 01:48:25;;;;;;;11.32;7.55;;;;;;;10.57;86.35;99195.59;5024936;28;20479;-64
2022/04/30 01:50:52;;;;;;;11.43;6.93;;;;;;;10.48;87.75;99189.47;5026236;28;20033;-63
2022/04/30 01:53:18;;;;;;;13.15;7.80;;;;;;;10.41;88.48;99188.56;5031222;28;20025;-63
2022/04/30 01:55:43;;;;;;;15.85;8.07;;;;;;;10.34;88.87;99185.78;5019147;28;20156;-64
2022/04/30 01:58:09;;;;;;;16.85;8.80;;;;;;;10.28;89.21;99173.03;5031511;28;20438;-63
2022/04/30 02:00:34;;;;;;;11.98;8.85;;;;;;;10.14;89.54;99155.81;5024718;28;20033;-63
2022/04/30 02:03:08;;;;;;;14.40;9.13;;;;;;;10.27;89.49;99174.00;5027780;28;20013;-63
2022/04/30 02:05:36;;;;;;;14.55;9.70;;;;;;;10.22;89.24;99168.38;5020999;28;20545;-63
2022/04/30 02:08:07;;;;;;;20.92;9.18;;;;;;;10.24;89.50;99171.69;5024805;28;20471;-64
2022/04/30 02:10:36;;;;;;;14.35;9.45;;;;;;;10.10;88.99;99151.81;5020669;28;20506;-64
2022/04/30 02:13:02;;;;;;;12.73;9.75;;;;;;;10.17;89.05;99160.84;5015113;28;20467;-63
2022/04/30 02:15:29;;;;;;;14.75;9.52;;;;;;;9.98;89.34;99126.28;5022286;28;20151;-64
2022/04/30 02:17:57;;;;;;;16.88;9.75;;;;;;;10.06;89.26;99154.06;5017791;28;20058;-64
2022/04/30 02:20:33;;;;;;;15.75;10.18;;;;;;;10.05;89.64;99154.25;5018718;28;20029;-63
2022/04/30 02:23:04;;;;;;;13.88;9.50;;;;;;;10.02;90.10;99155.47;5026033;28;20033;-63
2022/04/30 02:25:31;;;;;;;17.38;10.25;;;;;;;10.02;90.46;99160.88;5030706;28;20025;-63
2022/04/30 02:28:04;;;;;;;16.27;9.77;;;;;;;10.09;90.87;99156.38;5028489;28;20418;-63
2022/04/30 02:30:31;;;;;;;15.88;10.32;;;;;;;10.00;91.47;99162.09;5044629;28;20476;-63
2022/04/30 02:33:03;;;;;;;15.38;9.82;;;;;;;10.00;91.40;99170.19;5023203;28;20471;-64
2022/04/30 02:35:30;;;;;;;18.95;9.35;;;;;;;10.00;91.71;99168.31;5031709;28;20476;-63
2022/04/30 02:37:59;;;;;;;17.98;9.38;;;;;;;9.85;92.05;99146.75;5027704;28;20546;-63
2022/04/30 02:40:25;;;;;;;13.20;9.40;;;;;;;10.07;92.01;99173.81;5026105;28;20091;-63
2022/04/30 02:42:52;;;;;;;16.98;9.30;;;;;;;10.09;91.98;99169.06;5026940;28;20057;-64
2022/04/30 02:45:19;;;;;;;12.07;9.07;;;;;;;10.04;92.11;99155.28;5021540;28;20022;-64
2022/04/30 02:47:48;;;;;;;13.45;8.88;;;;;;;10.21;92.67;99164.81;5016298;28;20069;-63
2022/04/30 02:50:15;;;;;;;;;;;;;;;10.25;92.53;99165.28;5016228;28;20033;-64
2022/04/30 02:52:44;;;;;;;12.57;8.32;;;;;;;10.25;93.23;99165.28;5025729;28;19921;-62
2022/04/30 02:55:11;;;;;;;15.05;8.48;;;;;;;10.25;93.93;99159.88;5039520;28;20037;-63
2022/04/30 03:00:29;;;;;;;15.82;9.32;;;;;;;10.21;94.12;99159.41;5022674;28;20079;-63
2022/04/30 03:02:56;;;;;;;21.25;9.93;;;;;;;10.13;94.86;99151.41;5021932;28;20025;-63
2022/04/30 03:05:21;;;;;;;17.70;10.43;;;;;;;10.17;95.27;99166.25;5019246;28;20026;-64
2022/04/30 03:07:47;;;;;;;17.38;10.25;;;;;;;10.20;95.77;99154.22;5024891;28;20025;-63
2022/04/30 03:10:13;;;;;;;15.10;10.38;;;;;;;10.18;96.04;99156.25;5026229;28;20033;-63
2022/04/30 03:12:38;;;;;;;15.68;9.70;;;;;;;10.15;96.86;99154.78;5048418;28;20041;-64
2022/04/30 03:15:04;;;;;;;13.55;9.95;;;;;;;10.15;96.95;99165.59;5032649;28;20029;-63
2022/04/30 03:22:58;;;;;;;17.98;10.43;;;;;;;9.98;99.03;99158.72;5029370;28;20511;-63
2022/04/30 03:25:23;;;;;;;15.65;9.80;;;;;;;9.98;99.40;99161.44;5019622;28;20041;-63
2022/04/30 03:27:49;;;;;;;17.52;10.93;;;;;;;9.95;99.95;99167.22;5033325;28;20029;-64
2022/04/30 03:30:14;;;;;;;15.05;10.18;;;;;;;9.96;99.97;99171.63;5029122;28;20033;-63
2022/04/30 03:32:42;;;;;;;21.35;11.70;;;;;;;9.93;100.00;99170.13;5024212;28;20033;-63
2022/04/30 03:35:08;;;;;;;22.60;11.55;;;;;;;9.91;100.00;99163.25;5026024;28;20053;-63
2022/04/30 03:37:35;;;;;;;18.77;11.38;;;;;;;9.81;100.00;99152.72;5032316;28;20079;-63
2022/04/30 03:40:00;;;;;;;18.25;11.27;;;;;;;9.89;100.00;99160.72;5026038;28;20379;-63
2022/04/30 03:42:25;;;;;;;20.27;11.82;;;;;;;9.93;100.00;99170.13;5017406;28;20029;-63
2022/04/30 03:44:53;;;;;;;21.90;12.38;;;;;;;9.93;100.00;99163.88;5017396;28;20415;-63
2022/04/30 03:47:19;;;;;;;21.67;11.60;;;;;;;10.00;100.00;99176.44;5016217;28;20104;-63
2022/04/30 03:49:45;;;;;;;22.52;11.65;;;;;;;10.09;100.00;99171.78;5025694;28;20025;-63
2022/04/30 03:52:11;;;;;;;20.15;11.68;;;;;;;10.05;100.00;99171.31;5021918;28;20029;-63
2022/04/30 03:54:37;;;;;;;29.42;12.48;;;;;;;10.11;100.00;99180.50;5029528;28;20487;-63
2022/04/30 03:57:02;;;;;;;21.00;12.65;;;;;;;10.11;100.00;99183.22;5028470;28;20029;-63
2022/04/30 03:59:28;;;;;;;18.88;11.75;;;;;;;10.15;100.00;99179.09;5032569;28;20055;-63
2022/04/30 04:01:53;;;;;;;22.90;11.95;;;;;;;10.12;100.00;99190.31;5024348;28;20025;-63
2022/04/30 04:04:18;;;;;;;25.98;12.50;;;;;;;10.03;100.00;99177.91;5025416;28;20021;-63
2022/04/30 04:06:44;;;;;;;21.33;12.77;;;;;;;10.14;100.00;99184.69;5028865;28;20026;-63
2022/04/30 04:09:09;;;;;;;20.58;12.50;;;;;;;10.18;100.00;99180.59;5024596;28;20021;-63
2022/04/30 04:11:35;;;;;;;19.98;11.93;;;;;;;10.26;100.00;99189.41;5030505;28;20099;-64
2022/04/30 04:19:30;;;;;;;22.83;12.63;;;;;;;10.36;100.00;99188.31;5022130;28;20075;-63
2022/04/30 04:21:56;;;;;;;26.63;13.18;;;;;;;10.47;99.86;99201.31;5032021;28;20025;-63
2022/04/30 04:27:06;;;;;;;19.70;12.07;;;;;;;10.46;100.00;99200.47;5032605;28;20083;-63
2022/04/30 04:29:31;;;;;;;21.08;12.52;;;;;;;10.50;99.98;99211.75;5023464;28;20446;-63
2022/04/30 04:31:56;;;;;;;20.75;12.43;;;;;;;10.60;98.97;99216.84;5023166;28;20093;-64
2022/04/30 04:34:22;;;;;;;21.85;12.38;;;;;;;10.48;99.31;99213.81;5021833;28;20049;-63
2022/04/30 04:36:47;;;;;;;25.17;12.50;;;;;;;10.50;99.33;99222.56;5025101;28;20034;-67
2022/04/30 04:39:14;;;;;;;24.13;12.45;;;;;;;10.50;99.28;99220.69;5027587;28;20026;-66
2022/04/30 04:41:42;;;;;;;24.70;12.13;;;;;;;10.55;98.30;99213.88;5017734;28;20026;-70
2022/04/30 04:44:07;;;;;;;23.38;12.40;;;;;;;10.65;98.13;99225.22;5028113;28;20097;-69
2022/04/30 04:46:33;;;;;;;26.02;12.90;;;;;;;10.28;96.77;99159.53;5019848;28;20441;-69
2022/04/30 04:48:59;;;;;;;23.70;12.25;;;;;;;10.57;96.80;99196.41;5021644;28;20034;-71
2022/04/30 04:51:25;;;;;;;21.65;12.18;;;;;;;10.66;97.57;99221.47;5019817;28;20018;-71
2022/04/30 04:53:50;;;;;;;24.95;12.63;;;;;;;10.72;97.42;99223.41;5031178;28;20061;-70
2022/04/30 04:56:16;;;;;;;23.88;12.70;;;;;;;10.70;97.48;99222.75;5026360;28;20028;-71
2022/04/30 04:58:42;;;;;;;20.85;11.95;;;;;;;10.78;97.63;99222.63;5030249;28;20075;-70
2022/04/30 05:01:07;;;;;;;23.70;12.52;;;;;;;10.64;97.78;99208.16;5016703;28;20523;-70
2022/04/30 05:03:32;;;;;;;24.38;12.50;;;;;;;10.75;98.67;99220.31;5026174;28;20028;-69
2022/04/30 05:05:58;;;;;;;23.10;12.63;;;;;;;10.57;99.75;99203.69;5048036;28;20021;-70
2022/04/30 05:08:23;;;;;;;22.35;12.45;;;;;;;10.55;100.00;99209.28;5029758;28;20036;-70
2022/04/30 05:10:49;;;;;;;24.30;12.95;;;;;;;10.50;100.00;99185.53;5022247;28;20472;-69
2022/04/30 05:13:14;;;;;;;24.27;12.65;;;;;;;10.67;99.95;99218.59;5030555;28;20057;-70
2022/04/30 05:15:40;;;;;;;26.55;12.63;;;;;;;10.62;99.68;99214.78;5029685;28;20033;-69
2022/04/30 05:18:05;;;;;;;24.02;13.00;;;;;;;10.67;99.99;99232.09;5015630;28;20033;-70
2022/04/30 05:20:32;;;;;;;23.75;12.30;;;;;;;10.77;99.55;99239.06;5026171;28;20121;-70
2022/04/30 05:22:57;;;;;;;29.10;11.70;;;;;;;10.73;99.68;99225.91;5022416;28;20038;-70
2022/04/30 05:25:22;;;;;;;20.95;12.10;;;;;;;10.91;98.38;99246.28;5045895;28;20059;-70
2022/04/30 05:27:48;;;;;;;23.58;11.95;;;;;;;11.00;97.76;99244.25;5029676;28;20079;-70
2022/04/30 05:30:13;;;;;;;25.13;11.98;;;;;;;10.97;97.75;99230.06;5026660;28;20128;-71
2022/04/30 05:32:38;;;;;;;20.17;11.68;;;;;;;11.11;96.66;99222.09;5017877;28;20041;-69
2022/04/30 05:35:04;;;;;;;22.20;11.70;;;;;;;11.24;95.16;99240.28;5028436;28;20147;-71
2022/04/30 05:37:29;;;;;;;17.80;11.15;;;;;;;11.39;94.34;99252.69;5014816;28;20018;-67
2022/04/30 05:39:55;;;;;;;22.02;12.15;;;;;;;11.44;93.95;99245.84;5029247;28;20021;-65
2022/04/30 05:42:20;;;;;;;23.25;12.00;;;;;;;11.53;92.56;99256.34;5027990;28;20437;-66
2022/04/30 05:44:45;;;;;;;19.33;11.18;;;;;;;11.58;92.29;99242.19;5025549;28;20037;-72
2022/04/30 05:47:10;;;;;;;25.67;12.43;;;;;;;11.63;93.01;99246.00;5024103;28;20025;-72
2022/04/30 05:49:36;;;;;;;22.23;11.60;;;;;;;11.74;94.49;99258.16;5013918;28;20026;-69
2022/04/30 05:52:02;;;;;;;18.98;11.70;;;;;;;11.81;93.10;99267.13;5023275;28;20056;-67
2022/04/30 05:54:28;;;;;;;23.10;11.98;;;;;;;11.94;90.57;99263.69;5025076;28;20380;-69
2022/04/30 05:56:53;;;;;;;18.98;10.77;;;;;;;11.90;91.64;99250.75;5020035;28;20030;-67
2022/04/30 05:59:18;;;;;;;21.67;12.82;;;;;;;11.96;91.04;99258.06;5024003;28;20480;-69
2022/04/30 06:01:44;;;;;;;23.73;13.50;;;;;;;11.93;91.87;99274.75;5019315;28;20029;-68
2022/04/30 06:04:09;;;;;;;24.95;13.18;;;;;;;12.01;93.18;99270.00;5022841;28;20037;-69
2022/04/30 06:06:34;;;;;;;25.45;14.32;;;;;;;12.02;94.20;99270.81;5024809;28;20021;-66
2022/04/30 06:09:00;;;;;;;24.00;13.63;;;;;;;12.01;94.12;99270.00;5028525;28;20029;-69
2022/04/30 06:11:25;;;;;;;29.05;14.52;;;;;;;12.00;94.52;99246.63;5027158;28;20018;-69
2022/04/30 06:13:50;;;;;;;23.63;14.40;;;;;;;12.09;93.15;99276.28;5023449;28;20143;-68
2022/04/30 06:16:16;;;;;;;29.20;14.50;;;;;;;12.10;94.54;99261.69;5026557;28;20081;-69
2022/04/30 06:18:42;;;;;;;26.20;14.68;;;;;;;11.84;95.95;99282.16;5022430;28;20082;-68
2022/04/30 06:21:07;;;;;;;27.65;14.75;;;;;;;11.63;97.21;99261.41;5022173;28;20052;-68
2022/04/30 06:23:33;;;;;;;30.20;14.68;;;;;;;11.67;97.44;99286.25;5026540;28;20017;-67
2022/04/30 06:25:58;;;;;;;26.92;14.15;;;;;;;12.08;95.82;99294.44;5028916;28;20021;-68
2022/04/30 06:28:23;;;;;;;30.33;14.20;;;;;;;12.10;95.35;99291.50;5026376;28;20029;-68
2022/04/30 06:30:49;;;;;;;28.88;14.63;;;;;;;12.02;93.78;99282.50;5024237;28;20027;-68
2022/04/30 06:33:14;;;;;;;26.05;13.13;;;;;;;12.18;94.28;99264.22;5027284;28;20037;-68
2022/04/30 06:35:39;;;;;;;27.75;13.85;;;;;;;12.45;93.18;99282.28;5046965;28;20029;-68
2022/04/30 06:38:06;;;;;;;21.38;12.57;;;;;;;12.72;90.40;99293.22;5030155;28;20036;-68
2022/04/30 06:40:32;;;;;;;22.00;13.60;;;;;;;12.88;90.62;99294.69;5032392;28;20073;-68
2022/04/30 06:42:58;;;;;;;25.55;13.40;;;;;;;12.91;89.10;99288.84;5028695;28;20028;-69
2022/04/30 06:45:23;;;;;;;23.02;12.90;;;;;;;13.25;88.08;99290.56;5031139;28;20036;-68
2022/04/30 06:47:48;;;;;;;28.58;13.98;;;;;;;13.46;88.02;99288.69;5028865;28;20030;-68
2022/04/30 06:50:14;;;;;;;24.77;13.52;;;;;;;13.87;85.42;99283.00;5028728;28;20054;-68
2022/04/30 06:57:07;;;;;;;25.70;14.02;;;;;;;14.54;81.89;99290.94;5043698;28;20029;-68
2022/04/30 06:58:09;;;;;;;22.45;13.40;;;;;;;15.28;78.67;99286.72;5032711;28;20044;-67
2022/04/30 07:03:22;;;;;;;20.85;12.40;;;;;;;15.42;77.33;99290.16;5025361;28;20125;-69
2022/04/30 07:05:48;;;;;;;;;;;;;;;15.31;75.26;99284.34;5028519;28;20029;-70
2022/04/30 07:08:13;;;;;;;21.50;12.63;;;;;;;14.99;77.40;99282.72;5027630;28;19917;-71
2022/04/30 07:10:38;;;;;;;31.65;14.02;;;;;;;15.12;75.81;99279.91;5029443;28;20029;-70
2022/04/30 07:13:04;;;;;;;22.35;13.07;;;;;;;15.10;75.63;99288.28;5044531;28;20013;-70
2022/04/30 07:15:29;;;;;;;21.02;12.48;;;;;;;14.98;75.98;99273.69;5030333;28;20036;-72
2022/04/30 07:17:54;;;;;;;17.58;11.85;;;;;;;14.95;76.34;99281.50;5034618;28;20387;-76
2022/04/30 07:20:20;;;;;;;22.58;13.15;;;;;;;14.73;78.18;99281.00;5041218;28;20018;-73
2022/04/30 07:22:45;;;;;;;19.92;11.65;;;;;;;14.67;76.00;99274.53;5030906;28;20383;-73
2022/04/30 07:25:10;;;;;;;20.42;12.80;;;;;;;14.63;76.05;99295.09;5048807;28;20053;-66
2022/04/30 07:27:36;;;;;;;19.17;12.02;;;;;;;14.53;77.27;99290.09;5026680;28;20053;-66
2022/04/30 07:30:03;;;;;;;22.15;12.40;;;;;;;14.39;76.74;99288.47;5029108;28;20880;-66
2022/04/30 07:32:28;;;;;;;23.60;12.90;;;;;;;14.51;78.54;99291.34;5027685;28;20079;-66
2022/04/30 07:34:54;;;;;;;21.40;12.50;;;;;;;14.39;76.73;99289.31;5025946;28;20033;-66
2022/04/30 07:37:19;;;;;;;18.77;11.68;;;;;;;14.24;79.02;99292.28;5032318;28;20032;-67
2022/04/30 07:39:45;;;;;;;20.60;11.93;;;;;;;13.83;78.78;99295.34;5027112;28;20017;-66
2022/04/30 07:42:10;;;;;;;22.45;12.27;;;;;;;14.09;80.50;99294.44;5026351;28;20037;-66
2022/04/30 07:44:35;;;;;;;20.80;12.20;;;;;;;13.93;81.21;99263.09;5030251;28;20041;-71
2022/04/30 07:47:01;;;;;;;23.30;12.68;;;;;;;14.13;80.75;99290.25;5023361;28;20021;-71
2022/04/30 07:49:26;;;;;;;19.02;11.90;;;;;;;14.34;79.68;99274.69;5026539;28;20073;-70
2022/04/30 07:51:57;;;;;;;19.58;12.13;;;;;;;14.65;77.80;99293.00;5023098;28;20033;-71
2022/04/30 07:54:23;;;;;;;20.65;12.45;;;;;;;14.63;76.29;99289.66;5046622;28;20017;-71
2022/04/30 07:56:56;;;;;;;20.30;11.18;;;;;;;14.28;76.71;99259.19;5034557;28;20115;-72
2022/04/30 07:59:23;;;;;;;21.67;12.10;;;;;;;14.44;77.64;99299.56;5033857;28;20041;-72
2022/04/30 08:01:49;;;;;;;21.75;11.43;;;;;;;14.39;75.93;99280.31;5026110;28;20030;-72
2022/04/30 08:04:15;;;;;;;16.92;11.30;;;;;;;14.76;74.46;99294.19;5023703;28;20068;-71
2022/04/30 08:06:40;;;;;;;18.30;10.88;;;;;;;14.79;74.65;99301.91;5024955;28;20485;-71
2022/04/30 08:09:06;;;;;;;21.40;11.77;;;;;;;14.73;75.12;99311.81;5025856;28;20022;-71
2022/04/30 08:11:32;;;;;;;18.77;11.45;;;;;;;14.68;75.66;99317.91;5027045;28;20056;-72
2022/04/30 08:13:57;;;;;;;21.15;11.20;;;;;;;14.55;75.57;99292.63;5019205;28;20032;-73
2022/04/30 08:16:23;;;;;;;16.88;11.02;;;;;;;14.74;75.97;99318.09;5027859;28;20025;-68
2022/04/30 08:18:48;;;;;;;21.38;11.30;;;;;;;14.87;73.21;99315.28;5023397;28;20488;-68
2022/04/30 08:21:14;;;;;;;18.40;10.95;;;;;;;15.02;73.09;99320.44;5021764;28;20026;-67
2022/04/30 08:23:39;;;;;;;18.45;11.98;;;;;;;14.72;73.98;99320.19;5031714;28;20026;-67
2022/04/30 08:26:05;;;;;;;16.77;10.63;;;;;;;15.01;74.56;99296.94;5023341;28;20029;-69
2022/04/30 08:28:31;;;;;;;16.83;10.98;;;;;;;15.41;72.60;99311.13;5016429;28;20025;-70
2022/04/30 08:30:57;;;;;;;17.58;10.90;;;;;;;15.53;71.42;99311.22;5026196;28;20021;-66
2022/04/30 08:33:22;;;;;;;19.95;10.75;;;;;;;15.32;71.19;99307.00;5027955;28;20029;-66
2022/04/30 08:35:48;;;;;;;17.58;11.68;;;;;;;15.13;72.10;99312.38;5025821;28;20036;-66
2022/04/30 08:38:14;;;;;;;18.63;11.05;;;;;;;14.99;72.66;99299.09;5025540;28;20033;-66
2022/04/30 08:40:42;;;;;;;15.73;11.18;;;;;;;15.12;70.64;99310.72;5024138;28;21156;-66
2022/04/30 08:43:09;;;;;;;16.52;9.75;;;;;;;15.62;69.30;99317.25;5024615;28;20387;-66
2022/04/30 08:45:40;;;;;;;14.73;10.20;;;;;;;16.75;65.44;99297.72;5044234;28;20049;-68
2022/04/30 08:48:07;;;;;;;15.43;10.10;;;;;;;17.26;63.12;99306.44;5028423;28;20570;-67
2022/04/30 08:50:33;;;;;;;18.45;10.88;;;;;;;16.89;63.45;99301.13;5027225;28;20033;-66
2022/04/30 08:52:58;;;;;;;16.80;9.82;;;;;;;17.00;62.90;99294.03;5026444;28;20033;-70
2022/04/30 08:55:23;;;;;;;14.55;10.38;;;;;;;17.03;63.23;99312.72;5024932;28;20105;-67
2022/04/30 08:57:49;;;;;;;16.98;10.20;;;;;;;16.35;64.64;99297.41;5026003;28;20033;-69
2022/04/30 09:00:15;;;;;;;16.13;10.95;;;;;;;16.60;64.47;99316.41;5026429;28;20083;-67
2022/04/30 09:02:51;;;;;;;15.85;10.50;;;;;;;16.49;63.11;99298.91;5022072;28;20030;-67
2022/04/30 09:05:17;;;;;;;16.48;9.75;;;;;;;16.42;63.81;99304.44;5044264;28;20117;-67
2022/04/30 09:07:52;;;;;;;14.30;9.43;;;;;;;16.02;64.81;99303.25;5020222;28;20490;-64
2022/04/30 09:10:25;;;;;;;15.15;10.35;;;;;;;16.23;65.70;99293.78;5026237;28;20026;-65
2022/04/30 09:12:54;;;;;;;16.83;9.82;;;;;;;16.12;65.72;99307.13;5026449;28;20079;-64
2022/04/30 09:15:20;;;;;;;17.63;10.40;;;;;;;15.83;66.29;99310.59;5024340;28;20112;-63
2022/04/30 09:17:56;;;;;;;14.07;9.48;;;;;;;15.89;66.94;99310.50;5024544;28;20508;-69
2022/04/30 09:20:21;;;;;;;14.55;9.32;;;;;;;15.95;66.78;99286.94;5025332;28;20036;-66
2022/04/30 09:22:47;;;;;;;11.32;8.10;;;;;;;15.96;67.19;99311.28;5024159;28;20033;-66
2022/04/30 09:25:15;;;;;;;12.50;8.70;;;;;;;15.68;67.33;99308.16;5025367;28;20033;-71
2022/04/30 09:27:49;;;;;;;11.98;8.18;;;;;;;15.24;68.86;99304.53;5023931;28;20025;-67
2022/04/30 09:30:28;;;;;;;11.07;8.38;;;;;;;15.11;70.72;99319.94;5024501;28;20116;-67
2022/04/30 09:33:06;;;;;;;12.57;7.68;;;;;;;15.17;71.50;99310.06;5021105;28;20064;-64
2022/04/30 09:38:19;;;;;;;11.38;8.40;;;;;;;15.09;74.01;99313.88;5019580;28;20446;-63
2022/04/30 09:40:56;;;;;;;12.25;8.32;;;;;;;14.98;74.21;99300.13;5020010;28;20034;-64
2022/04/30 09:43:33;;;;;;;10.60;7.60;;;;;;;14.77;74.20;99312.19;5019918;28;20100;-64
2022/04/30 09:46:01;;;;;;;9.63;7.25;;;;;;;14.59;76.96;99316.50;5026853;28;20053;-65
2022/04/30 09:53:58;;;;;;;11.07;6.65;;;;;;;13.71;83.84;99306.03;5014888;28;20723;-64
2022/04/30 09:56:45;;;;;;;9.15;6.72;;;;;;;13.46;84.32;99326.75;5023672;28;20105;-64
2022/04/30 09:59:15;;;;;;;10.02;6.93;;;;;;;13.35;86.77;99311.91;5021111;28;20127;-64
2022/04/30 10:01:42;;;;;;;8.75;6.57;;;;;;;13.41;86.70;99323.81;5020482;28;20118;-63
2022/04/30 10:04:13;;;;;;;9.52;6.43;;;;;;;13.28;85.52;99311.06;5040881;28;20021;-64
2022/04/30 10:06:49;;;;;;;11.30;7.10;;;;;;;13.23;86.95;99322.56;5023249;28;20048;-63
2022/04/30 10:09:25;;;;;;;10.45;7.75;;;;;;;13.08;89.32;99335.50;5021457;28;20446;-65
2022/04/30 10:12:02;;;;;;;10.23;7.50;;;;;;;12.67;90.72;99328.28;5022862;28;20037;-63
2022/04/30 10:14:47;;;;;;;11.75;8.00;;;;;;;12.50;89.32;99325.94;5026193;28;20072;-63
2022/04/30 10:17:17;;;;;;;10.10;6.97;;;;;;;12.53;88.29;99326.56;5022598;28;20057;-63
2022/04/30 10:19:59;;;;;;;12.30;7.95;;;;;;;12.33;90.93;99327.31;5020238;28;20034;-63
2022/04/30 10:22:25;;;;;;;10.68;7.47;;;;;;;12.05;90.90;99290.25;5016107;28;20399;-63
2022/04/30 10:24:54;;;;;;;10.77;7.07;;;;;;;12.32;92.15;99324.81;5019395;28;20033;-63
2022/04/30 10:27:19;;;;;;;;;;;;;;;12.30;92.27;99329.59;5019241;28;20582;-63
2022/04/30 10:29:59;;;;;;;8.45;5.90;;;;;;;12.33;92.60;99332.72;5018108;28;19931;-65
2022/04/30 10:32:28;;;;;;;;;;;;;;;12.25;94.45;99335.63;5020670;28;20021;-63
2022/04/30 10:34:54;;;;;;;9.57;6.20;;;;;;;12.31;95.13;99332.09;5017539;28;19924;-63
2022/04/30 10:37:36;;;;;;;9.10;6.25;;;;;;;12.24;95.87;99333.97;5024879;28;20037;-63
2022/04/30 10:40:08;;;;;;;8.65;6.05;;;;;;;12.17;94.98;99333.06;5021595;28;20026;-63
2022/04/30 10:42:41;;;;;;;12.98;6.10;;;;;;;12.12;95.80;99330.13;5034543;28;20127;-63
2022/04/30 10:45:09;;;;;;;8.02;5.07;;;;;;;12.18;96.05;99324.75;5023146;28;20390;-64
2022/04/30 10:47:35;;;;;;;7.60;5.05;;;;;;;12.22;95.79;99330.59;5017674;28;20118;-64
2022/04/30 10:50:00;;;;;;;7.32;5.22;;;;;;;12.28;96.17;99332.50;5025270;28;20029;-64
2022/04/30 10:52:26;;;;;;;6.45;4.90;;;;;;;12.18;96.74;99313.03;5024933;28;20566;-64
2022/04/30 10:54:54;;;;;;;7.60;5.40;;;;;;;12.37;98.06;99330.47;5017612;28;20033;-64
2022/04/30 10:57:20;;;;;;;7.72;5.45;;;;;;;12.37;97.39;99327.75;5023745;28;20399;-64
2022/04/30 10:59:56;;;;;;;8.82;5.25;;;;;;;12.29;97.37;99323.34;5019863;28;20026;-64
2022/04/30 11:02:22;;;;;;;7.60;4.75;;;;;;;12.35;96.24;99335.25;5026036;28;20047;-63
2022/04/30 11:04:47;;;;;;;7.35;5.03;;;;;;;12.47;97.38;99330.91;5019361;28;20025;-64
2022/04/30 11:07:13;;;;;;;7.60;5.40;;;;;;;12.39;96.72;99331.09;5017871;28;20025;-63
2022/04/30 11:09:43;;;;;;;7.28;4.80;;;;;;;12.41;94.04;99329.84;5023063;28;20037;-63
2022/04/30 11:12:12;;;;;;;;;;;;;;;12.24;94.11;99323.94;5023541;28;20423;-63
2022/04/30 11:14:38;;;;;;;5.65;4.18;;;;;;;12.06;95.12;99305.47;5021363;28;20018;-63
2022/04/30 11:17:03;;;;;;;6.95;5.35;;;;;;;12.10;97.74;99326.78;5024898;28;20030;-63
2022/04/30 11:19:29;;;;;;;6.00;4.80;;;;;;;12.06;96.07;99327.19;5023431;28;20033;-63
2022/04/30 11:21:55;;;;;;;8.90;5.60;;;;;;;12.28;97.23;99313.50;5030821;28;20029;-63
2022/04/30 11:24:31;;;;;;;6.80;5.18;;;;;;;12.14;94.75;99326.19;5030662;28;20102;-63
2022/04/30 11:27:04;;;;;;;5.88;4.90;;;;;;;12.07;94.67;99309.84;5026616;28;20030;-63
2022/04/30 11:29:31;;;;;;;7.75;5.10;;;;;;;11.97;94.00;99313.97;5018588;28;20091;-63
2022/04/30 11:31:57;;;;;;;6.63;4.93;;;;;;;11.79;95.85;99298.22;5026000;28;20029;-63
2022/04/30 11:34:23;;;;;;;8.52;5.10;;;;;;;11.88;95.67;99323.31;5027924;28;20474;-64
2022/04/30 11:36:50;;;;;;;6.55;4.47;;;;;;;11.79;95.61;99311.78;5021185;28;20029;-64
2022/04/30 11:39:17;;;;;;;6.60;4.40;;;;;;;11.87;95.46;99316.19;5022243;28;20022;-64
2022/04/30 11:41:46;;;;;;;7.85;4.95;;;;;;;11.80;95.74;99310.72;5028382;28;20547;-64
2022/04/30 11:44:12;;;;;;;6.13;4.68;;;;;;;11.60;94.53;99313.28;5024553;28;20079;-63
2022/04/30 11:46:42;;;;;;;6.80;4.80;;;;;;;11.72;97.58;99313.59;5019829;28;20104;-64
2022/04/30 11:49:11;;;;;;;;;;;;;;;11.77;95.76;99308.41;5036936;28;20171;-64
2022/04/30 11:51:37;;;;;;;5.10;3.95;;;;;;;11.86;93.43;99304.53;5027819;28;20020;-64
2022/04/30 11:54:06;;;;;;;6.70;4.20;;;;;;;11.98;95.24;99312.97;5026185;28;20037;-64
2022/04/30 11:56:32;;;;;;;5.43;3.92;;;;;;;12.08;94.58;99308.00;5021854;28;20018;-64
2022/04/30 11:58:58;;;;;;;5.18;3.72;;;;;;;12.19;93.37;99315.56;5024095;28;20437;-64
2022/04/30 12:01:30;;;;;;;4.53;3.85;;;;;;;12.28;92.24;99313.50;5020672;28;20490;-64